Time;durP1;ratioP1;P1;durP2;ratioP2;P2;SDS_P1;SDS_P2;PMS_P1;PMS_P2;Temp;Humidity;BMP_temperature;BMP_pressure;BME280_temperature;BME280_humidity;BME280_pressure;Samples;Min_cycle;Max_cycle;Signal;HPM_P1;HPM_P2
2021/09/10 18:50:56;;;;;;;5.20;2.63;;;19.00;99.90;;;;;;8363282;27;20672;-79
2021/09/10 18:54:57;;;;;;;3.70;3.37;;;19.50;99.90;;;;;;8340286;28;23679;-83
2021/09/10 18:58:57;;;;;;;6.70;3.93;;;20.40;99.90;;;;;;8343284;28;20659;-83
2021/09/10 19:02:58;;;;;;;4.00;3.70;;;21.00;99.90;;;;;;8347334;28;20272;-84
2021/09/10 19:06:59;;;;;;;6.43;3.40;;;21.20;99.90;;;;;;8350008;28;20182;-78
2021/09/10 19:11:00;;;;;;;3.10;2.77;;;21.40;99.90;;;;;;8345571;28;21217;-80
2021/09/10 19:15:01;;;;;;;5.70;3.83;;;21.40;99.90;;;;;;8353513;28;20187;-81
2021/09/10 19:19:02;;;;;;;5.23;4.40;;;21.50;99.90;;;;;;8341319;28;20471;-79
2021/09/10 19:23:02;;;;;;;6.37;5.67;;;21.50;99.90;;;;;;8346545;28;20441;-77
2021/09/10 19:27:04;;;;;;;5.53;5.03;;;21.50;99.90;;;;;;8351692;28;20641;-77
2021/09/10 19:31:04;;;;;;;6.73;6.13;;;21.40;99.90;;;;;;8349441;28;20183;-79
2021/09/10 19:35:06;;;;;;;5.90;5.40;;;21.40;99.90;;;;;;8351772;28;20495;-78
2021/09/10 19:39:06;;;;;;;7.10;4.57;;;21.40;99.90;;;;;;8347518;28;20182;-80
2021/09/10 19:43:07;;;;;;;8.83;4.40;;;21.30;99.90;;;;;;8350774;28;20872;-82
2021/09/10 19:47:10;;;;;;;4.30;3.90;;;21.30;99.90;;;;;;8343989;28;20333;-79
2021/09/10 19:51:11;;;;;;;7.47;2.93;;;21.20;99.90;;;;;;8356283;28;20435;-78
2021/09/10 19:55:12;;;;;;;7.90;4.00;;;21.10;99.90;;;;;;8347888;28;20441;-77
2021/09/10 19:59:12;;;;;;;2.60;2.40;;;21.00;99.90;;;;;;8348231;28;20182;-83
2021/09/10 20:03:13;;;;;;;6.17;3.17;;;21.00;99.90;;;;;;8324512;28;20190;-81
2021/09/10 20:07:14;;;;;;;4.73;3.80;;;20.90;99.90;;;;;;8328458;28;20666;-80
2021/09/10 20:11:14;;;;;;;8.00;4.30;;;20.90;99.90;;;;;;8344195;28;20196;-78
2021/09/10 20:15:15;;;;;;;3.90;3.40;;;20.80;99.90;;;;;;8328784;28;20184;-76
2021/09/10 20:19:16;;;;;;;6.20;4.60;;;20.80;99.90;;;;;;8331556;28;20192;-77
2021/09/10 20:23:16;;;;;;;5.57;3.77;;;20.90;99.90;;;;;;8324373;28;20311;-79
2021/09/10 20:27:18;;;;;;;4.70;3.57;;;20.90;99.90;;;;;;8330116;28;20611;-80
2021/09/10 20:31:18;;;;;;;10.50;4.03;;;20.90;99.90;;;;;;8323518;28;20191;-80
2021/09/10 20:35:19;;;;;;;5.20;4.50;;;20.90;99.90;;;;;;8329733;28;20492;-78
2021/09/10 20:39:20;;;;;;;6.47;4.23;;;20.90;99.90;;;;;;8321039;28;20213;-78
2021/09/10 20:43:21;;;;;;;3.90;3.60;;;20.90;99.90;;;;;;8328490;28;20538;-80
2021/09/10 20:47:22;;;;;;;4.23;3.93;;;20.80;99.90;;;;;;8325303;28;20243;-78
2021/09/10 20:51:22;;;;;;;4.53;4.23;;;20.80;99.90;;;;;;8338813;28;20180;-77
2021/09/10 20:55:23;;;;;;;5.13;4.17;;;20.70;99.90;;;;;;8327196;28;20439;-79
2021/09/10 20:59:24;;;;;;;4.00;3.33;;;20.60;99.90;;;;;;8331779;28;20194;-79
2021/09/10 21:03:24;;;;;;;4.17;3.87;;;20.60;99.90;;;;;;8345017;28;20319;-77
2021/09/10 21:07:25;;;;;;;7.83;4.90;;;20.50;99.90;;;;;;8329129;28;20563;-79
2021/09/10 21:11:26;;;;;;;4.70;4.33;;;20.50;99.90;;;;;;8332576;28;20264;-77
2021/09/10 21:15:30;;;;;;;5.50;4.93;;;20.40;99.90;;;;;;8329091;28;20223;-79
2021/09/10 21:19:31;;;;;;;5.37;4.80;;;20.40;99.90;;;;;;8342408;28;20534;-79
2021/09/10 21:23:31;;;;;;;6.87;4.47;;;20.40;99.90;;;;;;8328102;28;20423;-79
2021/09/10 21:27:32;;;;;;;5.17;4.77;;;20.40;99.90;;;;;;8325727;28;20200;-78
2021/09/10 21:31:33;;;;;;;5.47;4.97;;;20.40;99.90;;;;;;8325992;28;20329;-77
2021/09/10 21:35:33;;;;;;;5.47;4.60;;;20.40;99.90;;;;;;8315850;28;20202;-78
2021/09/10 21:39:34;;;;;;;4.67;4.27;;;20.40;99.90;;;;;;8322570;28;20619;-78
2021/09/10 21:43:35;;;;;;;4.40;4.10;;;20.40;99.90;;;;;;8326729;28;20187;-80
2021/09/10 21:47:35;;;;;;;5.93;5.23;;;20.40;99.90;;;;;;8330428;28;20228;-77
2021/09/10 21:51:36;;;;;;;5.93;5.33;;;20.30;99.90;;;;;;8323530;28;20267;-78
2021/09/10 21:55:37;;;;;;;4.70;4.30;;;20.30;99.90;;;;;;8316836;28;20267;-77
2021/09/10 21:59:39;;;;;;;5.70;5.20;;;20.30;99.90;;;;;;8326929;28;20215;-79
2021/09/10 22:03:39;;;;;;;6.80;4.77;;;20.30;99.90;;;;;;8307537;28;20500;-81
2021/09/10 22:07:40;;;;;;;6.37;5.00;;;20.30;99.90;;;;;;8312928;28;20476;-80
2021/09/10 22:11:41;;;;;;;7.03;5.50;;;20.30;99.90;;;;;;8316440;28;20180;-78
2021/09/10 22:15:41;;;;;;;6.50;4.50;;;20.20;99.90;;;;;;8315758;28;20238;-79
2021/09/10 22:19:42;;;;;;;4.90;4.23;;;20.20;99.90;;;;;;8312900;28;20196;-79
2021/09/10 22:23:43;;;;;;;4.87;4.47;;;20.30;99.90;;;;;;8316700;28;20701;-79
2021/09/10 22:27:43;;;;;;;4.77;4.37;;;20.30;99.90;;;;;;8324804;28;20203;-78
2021/09/10 22:31:44;;;;;;;7.10;4.37;;;20.40;99.90;;;;;;8324847;28;20214;-78
2021/09/10 22:35:45;;;;;;;4.83;4.43;;;20.50;99.90;;;;;;8320519;28;20180;-79
2021/09/10 22:39:45;;;;;;;4.83;4.50;;;20.50;99.90;;;;;;8317992;28;20270;-79
2021/09/10 22:43:46;;;;;;;6.90;4.93;;;20.60;99.90;;;;;;8317581;28;20196;-77
2021/09/10 22:47:47;;;;;;;4.43;4.03;;;20.60;99.90;;;;;;8318770;28;20282;-78
2021/09/10 22:51:47;;;;;;;7.83;4.77;;;20.60;99.90;;;;;;8322830;28;20187;-79
2021/09/10 22:55:48;;;;;;;4.77;4.30;;;20.60;99.90;;;;;;8320219;28;20195;-78
2021/09/10 22:59:49;;;;;;;5.17;4.77;;;20.60;99.90;;;;;;8319948;28;20196;-79
2021/09/10 23:03:49;;;;;;;5.23;4.40;;;20.60;99.90;;;;;;8323422;28;20198;-78
2021/09/10 23:07:50;;;;;;;5.47;4.60;;;20.60;99.90;;;;;;8320569;28;20316;-79
2021/09/10 23:11:51;;;;;;;3.77;3.57;;;20.70;99.90;;;;;;8310711;28;20204;-79
2021/09/10 23:15:51;;;;;;;6.87;3.93;;;20.70;99.90;;;;;;8323587;28;20187;-78
2021/09/10 23:19:52;;;;;;;6.30;4.20;;;20.80;99.90;;;;;;8315277;28;20207;-78
2021/09/10 23:23:53;;;;;;;4.50;4.10;;;20.80;99.90;;;;;;8321051;28;20199;-78
2021/09/10 23:27:53;;;;;;;4.53;4.10;;;20.80;99.90;;;;;;8310208;28;20204;-78
2021/09/10 23:31:54;;;;;;;6.07;5.33;;;20.80;99.90;;;;;;8316262;28;20532;-78
2021/09/10 23:35:55;;;;;;;5.13;4.63;;;20.80;99.90;;;;;;8323167;28;20187;-78
2021/09/10 23:39:55;;;;;;;5.73;4.37;;;20.90;99.90;;;;;;8331954;28;20578;-81
2021/09/10 23:43:56;;;;;;;6.37;4.30;;;20.80;99.90;;;;;;8326742;28;20173;-78
2021/09/10 23:47:57;;;;;;;4.90;4.50;;;20.80;99.90;;;;;;8319188;28;20223;-78
2021/09/10 23:51:58;;;;;;;7.00;4.67;;;20.80;99.90;;;;;;8323879;28;20435;-78
2021/09/10 23:55:58;;;;;;;6.10;5.63;;;20.70;99.90;;;;;;8321388;28;20242;-78
2021/09/10 23:59:59;;;;;;;5.10;4.33;;;20.70;99.90;;;;;;8322274;28;20636;-78
